Westfield, Indiana
Current Conditions -  °F | °C
As of 5:15 AM on Wednesday 26 Nov 2014 (Local Time) from KTYQ Reporting Station
Overcast Overcast  
Wind Chill: 26°   Ceiling: 1200
Heat Index: 26°   Visibility: 10mi
Dew Point: 20°   Wind: 3mph
Humidity: 79%   Direction: 10°N
Pressure: 30.14"   Gusts: NA
Location:  40.04°N, 86.13°W
Report Text: KTYQ 261015Z AUTO 01003KT 10SM OVC012 M03/M06 A3014 RMK AO2 T10341065
Loading
Personal Weather Stations






























Interactive Weather Map New forecast layout! Learn more

10-Day Weather Forecast

Advertisements
Track Severe Weather on mobile